createdAt,value
2018-01-21T14:24:23.488Z,22.12
2018-01-21T14:35:50.890Z,8.09
2018-01-21T14:38:18.322Z,7.26
2018-01-21T14:40:45.848Z,6.69
2018-01-21T14:43:13.254Z,6.36
2018-01-21T14:45:40.761Z,6.03
2018-01-21T14:48:08.366Z,5.83
2018-01-21T14:50:35.808Z,5.57
2018-01-21T14:53:03.283Z,5.50
2018-01-21T14:55:30.669Z,5.32
2018-01-21T14:57:58.083Z,5.11
2018-01-21T15:00:25.475Z,5.04
2018-01-21T15:02:52.880Z,5.28
2018-01-21T15:05:20.320Z,5.31
2018-01-21T15:07:47.806Z,5.27
2018-01-21T15:10:15.275Z,5.27
2018-01-21T15:12:42.715Z,5.16
2018-01-21T15:15:10.125Z,5.08
2018-01-21T15:17:37.595Z,4.99
2018-01-21T15:20:04.972Z,4.73
2018-01-21T15:22:32.381Z,4.65
2018-01-21T15:24:59.780Z,4.72
2018-01-21T15:27:27.219Z,4.96
2018-01-21T15:29:55.020Z,5.01
2018-01-21T15:32:22.505Z,4.84
2018-01-21T15:34:49.896Z,4.83
2018-01-21T15:37:17.301Z,4.93
2018-01-21T15:39:44.843Z,4.88
2018-01-21T15:42:12.243Z,4.42
2018-01-21T15:44:39.676Z,4.30
2018-01-21T15:47:07.113Z,4.33
2018-01-21T15:49:34.550Z,4.38
2018-01-21T15:52:01.961Z,4.49
2018-01-21T15:54:29.356Z,4.33
2018-01-21T15:56:56.827Z,4.38
2018-01-21T15:59:24.271Z,4.17
2018-01-21T16:01:51.719Z,4.14
2018-01-21T16:04:19.116Z,4.00
2018-01-21T16:06:46.541Z,4.13
2018-01-21T16:09:13.940Z,4.04
2018-01-21T16:11:41.347Z,4.12
2018-01-21T16:14:08.808Z,4.50
2018-01-21T16:16:36.431Z,4.25
2018-01-21T16:19:04.007Z,3.98
2018-01-21T16:21:31.396Z,3.77
2018-01-21T16:23:58.788Z,3.68
2018-01-21T16:26:26.183Z,3.62
2018-01-21T16:28:53.944Z,3.41
2018-01-21T16:31:21.355Z,3.36
2018-01-21T16:33:48.755Z,3.35
2018-01-21T16:36:31.236Z,3.21
2018-01-21T16:39:00.399Z,3.13
2018-01-21T16:41:27.796Z,3.06
2018-01-21T16:43:55.204Z,3.08
2018-01-21T16:46:22.606Z,3.35
2018-01-21T16:48:50.009Z,3.32
2018-01-21T16:51:17.396Z,3.34
2018-01-21T16:53:44.820Z,3.42
2018-01-21T16:56:12.250Z,3.32
2018-01-21T16:58:39.697Z,3.23
2018-01-21T17:01:07.088Z,3.13
2018-01-21T17:03:34.568Z,3.06
2018-01-21T17:06:02.000Z,3.10
2018-01-21T17:08:29.454Z,3.22
2018-01-21T17:10:56.840Z,3.27
2018-01-21T17:13:24.247Z,3.24
2018-01-21T17:15:51.636Z,3.14
2018-01-21T17:18:19.099Z,3.07
2018-01-21T17:20:46.493Z,3.03
2018-01-21T17:23:13.881Z,2.93
2018-01-21T17:25:41.337Z,2.99
2018-01-21T17:28:08.720Z,3.24
2018-01-21T17:30:36.164Z,3.21
2018-01-21T17:33:03.615Z,3.12
2018-01-21T17:35:31.052Z,2.92
2018-01-21T17:37:58.763Z,2.95
2018-01-21T17:40:26.259Z,2.89
2018-01-21T17:42:53.781Z,2.93
2018-01-21T17:45:21.169Z,2.85
2018-01-21T17:47:48.907Z,2.63
2018-01-21T17:50:16.385Z,2.48
2018-01-21T17:52:43.816Z,2.68
2018-01-21T17:55:11.208Z,2.73
2018-01-21T17:57:38.657Z,2.66
2018-01-21T18:00:06.055Z,2.54
2018-01-21T18:02:33.464Z,2.61
2018-01-21T18:05:00.872Z,2.61
2018-01-21T18:07:28.261Z,2.56
2018-01-21T18:09:55.664Z,2.35
2018-01-21T18:12:23.061Z,2.36
2018-01-21T18:14:50.566Z,2.43
2018-01-21T18:17:18.734Z,2.34
2018-01-21T18:19:46.901Z,2.44
2018-01-21T18:22:14.277Z,2.35
2018-01-21T18:24:41.728Z,2.33
2018-01-21T18:27:09.155Z,2.39
2018-01-21T18:29:36.581Z,2.40
2018-01-21T18:32:04.050Z,2.27
2018-01-21T18:34:32.396Z,2.13
2018-01-21T18:36:59.786Z,2.14
2018-01-21T18:39:27.206Z,2.06
2018-01-21T18:41:54.640Z,1.91
2018-01-21T18:44:22.605Z,1.83
2018-01-21T18:46:50.427Z,1.73
2018-01-21T18:49:17.805Z,1.73
2018-01-21T18:51:45.264Z,1.71
2018-01-21T18:54:12.697Z,1.95
2018-01-21T18:56:40.089Z,1.83
2018-01-21T18:59:07.540Z,1.81
2018-01-21T19:01:34.986Z,1.72
2018-01-21T19:04:02.417Z,1.64
2018-01-21T19:06:29.808Z,1.72
2018-01-21T19:08:57.250Z,1.86
2018-01-21T19:11:24.718Z,1.86
2018-01-21T19:13:52.165Z,1.84
2018-01-21T19:16:19.609Z,1.87
2018-01-21T19:18:47.001Z,1.90
2018-01-21T19:21:14.470Z,1.97
2018-01-21T19:23:41.912Z,1.97
2018-01-21T19:26:09.304Z,1.90
2018-01-21T19:28:36.706Z,2.20
2018-01-21T19:31:04.925Z,2.31
2018-01-21T19:33:32.364Z,2.32
2018-01-21T19:35:59.757Z,2.38
2018-01-21T19:38:29.609Z,2.41
2018-01-21T19:40:57.053Z,2.33
2018-01-21T19:43:36.188Z,2.24
2018-01-21T19:46:05.346Z,2.10
2018-01-21T19:48:32.778Z,2.02
2018-01-21T19:51:00.218Z,2.38
2018-01-21T19:53:27.604Z,2.46
2018-01-21T19:55:55.054Z,2.41
2018-01-21T19:58:22.437Z,2.25
2018-01-21T20:00:49.859Z,2.23
2018-01-21T20:03:17.249Z,2.13
2018-01-21T20:05:44.687Z,2.08
2018-01-21T20:08:12.389Z,2.18
2018-01-21T20:10:39.823Z,2.48
2018-01-21T20:13:09.932Z,2.59
2018-01-21T20:15:37.382Z,2.48
2018-01-21T20:18:04.827Z,2.63
2018-01-21T20:20:32.253Z,2.60
2018-01-21T20:22:59.676Z,2.62
2018-01-21T20:25:27.091Z,2.75
2018-01-21T20:27:54.535Z,2.76
2018-01-21T20:30:21.916Z,2.82
2018-01-21T20:32:49.370Z,2.76
2018-01-21T20:35:16.821Z,2.71
2018-01-21T20:37:44.259Z,2.83
2018-01-21T20:40:11.710Z,2.78
2018-01-21T20:42:39.109Z,2.66
2018-01-21T20:45:07.455Z,2.65
2018-01-21T20:47:34.959Z,2.73
2018-01-21T20:50:02.416Z,2.78
2018-01-21T20:52:35.502Z,2.75
2018-01-21T20:55:02.896Z,2.51
2018-01-21T20:57:30.379Z,2.38
2018-01-21T20:59:57.828Z,2.39
2018-01-21T21:02:25.275Z,2.57
2018-01-21T21:04:52.760Z,2.59
2018-01-21T21:07:20.200Z,2.65
2018-01-21T21:09:47.770Z,2.97
2018-01-21T21:12:15.215Z,3.04
2018-01-21T21:14:42.638Z,3.00
2018-01-21T21:17:10.119Z,2.93
2018-01-21T21:19:37.647Z,2.61
2018-01-21T21:22:05.056Z,2.59
2018-01-21T21:24:32.446Z,2.70
2018-01-21T21:26:59.896Z,2.82
2018-01-21T21:29:27.307Z,2.84
2018-01-21T21:31:54.698Z,2.95
2018-01-21T21:34:22.181Z,2.70
2018-01-21T21:36:49.616Z,2.54
2018-01-21T21:39:17.253Z,2.46
2018-01-21T21:41:44.697Z,2.41
2018-01-21T21:44:12.092Z,2.25
2018-01-21T21:46:39.550Z,2.54
2018-01-21T21:49:07.001Z,2.63
2018-01-21T21:51:34.384Z,2.50
2018-01-21T21:54:01.793Z,2.41
2018-01-21T21:56:29.199Z,2.40
2018-01-21T21:58:57.672Z,2.36
2018-01-21T22:02:40.695Z,2.32
2018-01-21T22:05:08.179Z,2.34
2018-01-21T22:07:35.703Z,2.31
2018-01-21T22:10:03.107Z,2.41
2018-01-21T22:12:30.546Z,2.43
2018-01-21T22:14:57.941Z,2.66
2018-01-21T22:17:25.338Z,2.59
2018-01-21T22:19:52.740Z,2.76
2018-01-21T22:22:20.169Z,2.60
2018-01-21T22:24:47.603Z,2.74
2018-01-21T22:27:15.008Z,2.77
2018-01-21T22:29:42.408Z,2.88
2018-01-21T22:32:09.803Z,2.90
2018-01-21T22:34:37.221Z,2.96
2018-01-21T22:37:04.608Z,3.07
2018-01-21T22:39:32.085Z,3.07
2018-01-21T22:41:59.544Z,2.92
2018-01-21T22:44:26.950Z,2.86
2018-01-21T22:46:54.472Z,2.88
2018-01-21T22:49:21.890Z,2.95
2018-01-21T22:51:49.288Z,2.75
2018-01-21T22:54:16.703Z,2.76
2018-01-21T22:56:44.139Z,2.90
2018-01-21T22:59:11.550Z,2.95
2018-01-21T23:01:39.041Z,2.86
2018-01-21T23:04:06.436Z,2.77
2018-01-21T23:06:33.833Z,2.71
2018-01-21T23:09:01.305Z,2.73
2018-01-21T23:11:28.700Z,2.74
2018-01-21T23:13:56.097Z,2.77
2018-01-21T23:16:23.492Z,2.74
2018-01-21T23:18:50.889Z,2.61
2018-01-21T23:21:18.353Z,2.59
2018-01-21T23:23:45.729Z,2.34
2018-01-21T23:26:13.129Z,2.30
2018-01-21T23:28:40.528Z,2.37
2018-01-21T23:31:08.129Z,2.24
2018-01-21T23:33:35.520Z,2.23
2018-01-21T23:36:02.916Z,2.17
2018-01-21T23:38:30.379Z,2.11
2018-01-21T23:40:57.789Z,2.22
2018-01-21T23:43:25.219Z,2.23
2018-01-21T23:45:52.604Z,2.12
2018-01-21T23:48:20.006Z,2.20
2018-01-21T23:50:47.399Z,2.07
2018-01-21T23:53:14.796Z,1.83
2018-01-21T23:55:42.203Z,1.69
2018-01-21T23:58:09.592Z,1.59
